createdAt,value
2022-09-15T00:00:32.707Z,15.10
2022-09-15T00:01:35.933Z,15.10
2022-09-15T00:02:39.019Z,15.10
2022-09-15T00:03:42.403Z,15.11
2022-09-15T00:04:45.378Z,15.11
2022-09-15T00:05:48.837Z,15.10
2022-09-15T00:06:52.667Z,15.10
2022-09-15T00:07:55.637Z,15.09
2022-09-15T00:08:58.863Z,15.09
2022-09-15T00:10:02.980Z,15.07
2022-09-15T00:11:12.205Z,15.06
2022-09-15T00:12:15.255Z,15.06
2022-09-15T00:13:19.483Z,15.03
2022-09-15T00:14:22.519Z,15.02
2022-09-15T00:15:25.573Z,15.00
2022-09-15T00:16:31.320Z,15.00
2022-09-15T00:17:34.389Z,14.98
2022-09-15T00:18:38.560Z,14.95
2022-09-15T00:19:41.862Z,14.93
2022-09-15T00:20:45.737Z,14.92
2022-09-15T00:21:48.729Z,14.91
2022-09-15T00:22:51.922Z,14.89
2022-09-15T00:23:55.023Z,14.88
2022-09-15T00:24:58.230Z,14.88
2022-09-15T00:26:01.403Z,14.86
2022-09-15T00:27:04.630Z,14.85
2022-09-15T00:28:07.718Z,14.85
2022-09-15T00:29:11.003Z,14.84
2022-09-15T00:30:14.755Z,14.84
2022-09-15T00:31:21.027Z,14.84
2022-09-15T00:32:24.039Z,14.84
2022-09-15T00:33:27.311Z,14.83
2022-09-15T00:34:30.259Z,14.83
2022-09-15T00:35:39.570Z,14.82
2022-09-15T00:36:42.712Z,14.82
2022-09-15T00:37:45.638Z,14.82
2022-09-15T00:38:48.792Z,14.81
2022-09-15T00:39:52.997Z,14.82
2022-09-15T00:40:57.242Z,14.79
2022-09-15T00:42:00.411Z,14.80
2022-09-15T00:43:05.127Z,14.78
2022-09-15T00:44:24.011Z,14.80
2022-09-15T00:45:27.204Z,14.79
2022-09-15T00:46:37.332Z,14.79
2022-09-15T00:47:40.495Z,14.80
2022-09-15T00:49:06.700Z,14.80
2022-09-15T00:50:13.893Z,14.81
2022-09-15T00:51:19.743Z,14.80
2022-09-15T00:52:32.208Z,14.79
2022-09-15T00:53:37.090Z,14.78
2022-09-15T00:54:43.614Z,14.78
2022-09-15T00:55:49.169Z,14.78
2022-09-15T00:56:55.804Z,14.78
2022-09-15T00:58:02.377Z,14.78
2022-09-15T00:59:09.429Z,14.79
2022-09-15T01:00:15.976Z,14.79
2022-09-15T01:01:19.210Z,14.79
2022-09-15T01:02:30.091Z,14.78
2022-09-15T01:03:34.720Z,14.78
2022-09-15T01:04:37.780Z,14.79
2022-09-15T01:05:44.406Z,14.79
2022-09-15T01:06:51.204Z,14.79
2022-09-15T01:08:04.044Z,14.80
2022-09-15T01:09:16.589Z,14.81
2022-09-15T01:10:32.484Z,14.79
2022-09-15T01:11:35.855Z,14.81
2022-09-15T01:12:40.407Z,14.79
2022-09-15T01:13:44.100Z,14.79
2022-09-15T01:14:47.138Z,14.79
2022-09-15T01:16:11.884Z,14.79
2022-09-15T01:17:42.801Z,14.79
2022-09-15T01:18:47.267Z,14.79
2022-09-15T01:20:08.903Z,14.77
2022-09-15T01:21:32.838Z,14.75
2022-09-15T01:23:13.956Z,14.72
2022-09-15T01:24:44.523Z,14.71
2022-09-15T01:26:10.131Z,14.68
2022-09-15T01:27:40.882Z,14.65
2022-09-15T01:28:43.890Z,14.63
2022-09-15T01:30:08.753Z,14.62
2022-09-15T01:31:32.023Z,14.61
2022-09-15T01:33:05.470Z,14.60
2022-09-15T01:35:33.263Z,14.69
2022-09-15T01:36:39.917Z,14.57
2022-09-15T01:37:55.120Z,14.56
2022-09-15T01:39:01.776Z,14.56
2022-09-15T01:40:08.707Z,14.56
2022-09-15T01:41:21.122Z,14.56
2022-09-15T01:42:25.261Z,14.55
2022-09-15T01:43:29.954Z,14.56
2022-09-15T01:44:36.515Z,14.56
2022-09-15T01:45:42.697Z,14.55
2022-09-15T01:46:48.165Z,14.55
2022-09-15T01:47:54.862Z,14.55
2022-09-15T01:49:01.521Z,14.55
2022-09-15T01:50:14.292Z,14.55
2022-09-15T01:51:18.110Z,14.55
2022-09-15T01:52:23.435Z,14.55
2022-09-15T01:53:27.456Z,14.54
2022-09-15T01:54:33.728Z,14.55
2022-09-15T01:55:55.247Z,14.54
2022-09-15T01:56:58.742Z,14.54
2022-09-15T01:58:01.774Z,14.54
2022-09-15T01:59:05.510Z,14.54
2022-09-15T02:00:10.141Z,14.54
2022-09-15T02:01:27.583Z,14.53
2022-09-15T02:02:43.595Z,14.53
2022-09-15T02:03:56.201Z,14.53
2022-09-15T02:05:03.285Z,14.53
2022-09-15T02:06:09.987Z,14.53
2022-09-15T02:07:23.343Z,14.52
2022-09-15T02:08:33.295Z,14.53
2022-09-15T02:09:46.098Z,14.54
2022-09-15T02:11:01.648Z,14.55
2022-09-15T02:12:33.463Z,14.57
2022-09-15T02:13:48.065Z,14.59
2022-09-15T02:15:04.901Z,14.61
2022-09-15T02:16:13.549Z,14.63
2022-09-15T02:17:19.444Z,14.62
2022-09-15T02:18:32.322Z,14.64
2022-09-15T02:19:41.279Z,14.65
2022-09-15T02:20:54.414Z,14.67
2022-09-15T02:22:20.993Z,14.68
2022-09-15T02:23:28.210Z,14.69
2022-09-15T02:24:35.056Z,14.73
2022-09-15T02:25:42.782Z,14.74
2022-09-15T02:26:48.838Z,14.76
2022-09-15T02:27:54.872Z,14.78
2022-09-15T02:29:01.545Z,14.82
2022-09-15T02:30:08.471Z,14.84
2022-09-15T02:31:14.720Z,14.87
2022-09-15T02:32:21.345Z,14.89
2022-09-15T02:33:27.920Z,14.92
2022-09-15T02:34:34.064Z,14.93
2022-09-15T02:35:38.714Z,14.94
2022-09-15T02:36:42.469Z,14.96
2022-09-15T02:37:46.236Z,14.98
2022-09-15T02:38:53.048Z,14.98
2022-09-15T02:39:58.714Z,15.00
2022-09-15T02:41:02.373Z,15.01
2022-09-15T02:42:05.754Z,15.01
2022-09-15T02:43:11.937Z,15.03
2022-09-15T02:44:15.325Z,15.04
2022-09-15T02:45:19.682Z,15.05
2022-09-15T02:46:23.194Z,15.05
2022-09-15T02:47:31.487Z,15.05
2022-09-15T02:48:35.565Z,15.05
2022-09-15T02:49:38.527Z,15.05
2022-09-15T02:50:41.518Z,15.07
2022-09-15T02:51:44.463Z,15.07
2022-09-15T02:52:47.373Z,15.06
2022-09-15T02:53:50.306Z,15.07
2022-09-15T02:54:53.766Z,15.09
2022-09-15T02:55:57.436Z,15.09
2022-09-15T02:57:00.966Z,15.09
2022-09-15T02:58:03.983Z,15.09
2022-09-15T02:59:07.129Z,15.10
2022-09-15T03:00:14.686Z,15.10
2022-09-15T03:01:18.056Z,15.09
2022-09-15T03:02:21.204Z,15.07
2022-09-15T03:03:24.234Z,15.07
2022-09-15T03:04:27.198Z,15.07
2022-09-15T03:05:30.456Z,15.05
2022-09-15T03:06:36.628Z,15.06
2022-09-15T03:07:40.077Z,15.06
2022-09-15T03:08:50.373Z,15.05
2022-09-15T03:09:53.623Z,15.04
2022-09-15T03:10:59.850Z,15.03
2022-09-15T03:12:02.876Z,15.02
2022-09-15T03:13:06.378Z,15.01
2022-09-15T03:14:09.649Z,14.99
2022-09-15T03:15:14.633Z,14.98
2022-09-15T03:16:18.435Z,14.96
2022-09-15T03:17:21.375Z,14.95
2022-09-15T03:18:24.347Z,14.93
2022-09-15T03:19:27.557Z,14.93
2022-09-15T03:20:30.956Z,14.91
2022-09-15T03:21:35.226Z,14.90
2022-09-15T03:22:38.722Z,14.89
2022-09-15T03:23:41.912Z,14.88
2022-09-15T03:24:45.544Z,14.87
2022-09-15T03:25:48.553Z,14.87
2022-09-15T03:26:51.672Z,14.86
2022-09-15T03:27:54.755Z,14.86
2022-09-15T03:28:57.947Z,14.86
2022-09-15T03:30:01.430Z,14.85
2022-09-15T03:31:05.787Z,14.86
2022-09-15T03:32:08.796Z,14.84
2022-09-15T03:33:11.855Z,14.85
2022-09-15T03:34:14.861Z,14.86
2022-09-15T03:35:17.882Z,14.84
2022-09-15T03:36:22.661Z,14.85
2022-09-15T03:37:27.185Z,14.86
2022-09-15T03:38:30.559Z,14.86
2022-09-15T03:39:34.184Z,14.87
2022-09-15T03:40:37.442Z,14.87
2022-09-15T03:41:40.736Z,14.87
2022-09-15T03:42:43.690Z,14.89
2022-09-15T03:43:46.671Z,14.90
2022-09-15T03:44:49.727Z,14.92
2022-09-15T03:45:53.669Z,14.93
2022-09-15T03:46:57.797Z,14.95
2022-09-15T03:48:00.811Z,14.95
2022-09-15T03:49:04.101Z,14.97
2022-09-15T03:50:07.815Z,14.99
2022-09-15T03:51:11.440Z,15.01
2022-09-15T03:52:14.429Z,15.03
2022-09-15T03:53:18.191Z,15.06
2022-09-15T03:54:21.266Z,15.08
2022-09-15T03:55:24.284Z,15.11
2022-09-15T03:56:32.973Z,15.13
2022-09-15T03:57:36.047Z,15.14
2022-09-15T03:58:39.080Z,15.15
2022-09-15T03:59:42.025Z,15.17
2022-09-15T04:00:46.266Z,15.18
2022-09-15T04:01:50.320Z,15.19
2022-09-15T04:02:53.269Z,15.21
2022-09-15T04:03:57.326Z,15.23
2022-09-15T04:05:00.304Z,15.27
2022-09-15T04:06:03.849Z,15.30
2022-09-15T04:07:08.671Z,15.31
2022-09-15T04:08:12.783Z,15.33
2022-09-15T04:09:15.856Z,15.34
2022-09-15T04:10:19.125Z,15.35
2022-09-15T04:11:22.689Z,15.36
2022-09-15T04:12:25.618Z,15.38
2022-09-15T04:13:28.868Z,15.39
2022-09-15T04:14:31.858Z,15.40
2022-09-15T04:15:34.971Z,15.41
2022-09-15T04:16:37.929Z,15.42
2022-09-15T04:17:40.939Z,15.43
2022-09-15T04:18:43.945Z,15.45
2022-09-15T04:19:46.958Z,15.46
2022-09-15T04:20:49.923Z,15.47
2022-09-15T04:21:53.005Z,15.49
2022-09-15T04:22:56.030Z,15.49
2022-09-15T04:23:59.088Z,15.51
2022-09-15T04:25:02.140Z,15.53
2022-09-15T04:26:08.821Z,15.53
2022-09-15T04:27:11.743Z,15.56
2022-09-15T04:28:14.700Z,15.56
2022-09-15T04:29:18.927Z,15.57
2022-09-15T04:30:23.505Z,15.57
2022-09-15T04:31:26.513Z,15.58
2022-09-15T04:32:29.827Z,15.60
2022-09-15T04:33:33.753Z,15.61
2022-09-15T04:34:41.216Z,15.61
2022-09-15T04:35:42.379Z,15.61
2022-09-15T04:36:46.149Z,15.62
2022-09-15T04:37:49.254Z,15.63
2022-09-15T04:38:52.802Z,15.65
2022-09-15T04:39:56.334Z,15.66
2022-09-15T04:40:59.771Z,15.66
2022-09-15T04:42:04.761Z,15.67
2022-09-15T04:43:08.030Z,15.66
2022-09-15T04:44:11.203Z,15.67
2022-09-15T04:45:14.243Z,15.67
2022-09-15T04:46:18.773Z,15.68
2022-09-15T04:47:21.830Z,15.68
2022-09-15T04:48:25.444Z,15.68
2022-09-15T04:49:28.639Z,15.69
2022-09-15T04:50:33.400Z,15.69
2022-09-15T04:51:38.408Z,15.69
2022-09-15T04:52:41.425Z,15.69
2022-09-15T04:53:45.015Z,15.69
2022-09-15T04:54:48.036Z,15.69
2022-09-15T04:55:51.005Z,15.68
2022-09-15T04:56:54.064Z,15.68
2022-09-15T04:57:57.619Z,15.69
2022-09-15T04:59:03.836Z,15.70
2022-09-15T05:00:07.065Z,15.71
2022-09-15T05:01:13.197Z,15.73
2022-09-15T05:02:16.339Z,15.73
2022-09-15T05:03:19.322Z,15.76
2022-09-15T05:04:22.380Z,15.77
2022-09-15T05:05:25.584Z,15.79
2022-09-15T05:06:28.918Z,15.80
2022-09-15T05:07:31.906Z,15.81
2022-09-15T05:08:35.982Z,15.82
2022-09-15T05:09:39.085Z,15.82
2022-09-15T05:10:42.385Z,15.82
2022-09-15T05:11:45.470Z,15.85
2022-09-15T05:12:48.436Z,15.85
2022-09-15T05:13:51.538Z,15.87
2022-09-15T05:14:54.517Z,15.87
2022-09-15T05:16:06.202Z,15.87
2022-09-15T05:17:10.143Z,15.88
2022-09-15T05:18:13.128Z,15.90
2022-09-15T05:19:16.095Z,15.90
2022-09-15T05:20:19.607Z,15.91
2022-09-15T05:21:23.174Z,15.92
2022-09-15T05:22:27.411Z,15.92
2022-09-15T05:23:32.582Z,15.93
2022-09-15T05:24:35.602Z,15.94
2022-09-15T05:25:38.589Z,15.94
2022-09-15T05:26:41.651Z,15.96
2022-09-15T05:27:44.949Z,15.96
2022-09-15T05:28:47.946Z,15.96
2022-09-15T05:30:04.295Z,15.97
2022-09-15T05:30:55.917Z,15.98
2022-09-15T05:31:58.992Z,16.00
2022-09-15T05:33:01.882Z,15.99
2022-09-15T05:34:05.960Z,16.01
2022-09-15T05:35:09.112Z,16.02
2022-09-15T05:36:14.567Z,16.04
2022-09-15T05:37:19.763Z,16.05
2022-09-15T05:38:23.694Z,16.06
2022-09-15T05:39:26.755Z,16.08
2022-09-15T05:40:30.056Z,16.10
2022-09-15T05:41:32.964Z,16.12
2022-09-15T05:42:36.015Z,16.13
2022-09-15T05:43:39.676Z,16.14
2022-09-15T05:44:42.663Z,16.16
2022-09-15T05:45:52.362Z,16.17
2022-09-15T05:46:55.577Z,16.20
2022-09-15T05:47:58.476Z,16.21
2022-09-15T05:49:01.545Z,16.21
2022-09-15T05:50:05.282Z,16.23
2022-09-15T05:51:08.266Z,16.25
2022-09-15T05:52:11.375Z,16.27
2022-09-15T05:53:16.277Z,16.31
2022-09-15T05:54:19.305Z,16.34
2022-09-15T05:55:22.379Z,16.37
2022-09-15T05:56:27.111Z,16.39
2022-09-15T05:57:30.049Z,16.41
2022-09-15T05:58:33.892Z,16.43
2022-09-15T05:59:38.647Z,16.44
2022-09-15T06:00:42.056Z,16.46
2022-09-15T06:01:45.356Z,16.49
2022-09-15T06:02:48.456Z,16.50
2022-09-15T06:03:51.759Z,16.54
2022-09-15T06:04:54.971Z,16.57
2022-09-15T06:06:03.010Z,16.62
2022-09-15T06:07:06.243Z,16.65
2022-09-15T06:08:10.046Z,16.70
2022-09-15T06:09:14.048Z,16.76
2022-09-15T06:10:17.945Z,16.79
2022-09-15T06:11:23.886Z,16.85
2022-09-15T06:12:27.040Z,16.91
2022-09-15T06:13:30.182Z,16.96
2022-09-15T06:14:33.150Z,17.01
2022-09-15T06:15:36.133Z,17.04
2022-09-15T06:16:39.375Z,17.08
2022-09-15T06:17:42.414Z,17.10
2022-09-15T06:18:46.877Z,17.15
2022-09-15T06:19:49.930Z,17.22
2022-09-15T06:20:53.222Z,17.22
2022-09-15T06:21:56.924Z,17.24
2022-09-15T06:22:59.996Z,17.27
2022-09-15T06:25:27.090Z,17.32
2022-09-15T06:26:30.557Z,17.35
2022-09-15T06:27:33.620Z,17.37
2022-09-15T06:28:37.850Z,17.40
2022-09-15T06:29:40.792Z,17.43
2022-09-15T06:30:45.896Z,17.46
2022-09-15T06:31:48.945Z,17.49
2022-09-15T06:32:51.914Z,17.53
2022-09-15T06:33:55.916Z,17.57
2022-09-15T06:34:59.243Z,17.61
2022-09-15T06:36:02.699Z,17.66
2022-09-15T06:37:05.571Z,17.72
2022-09-15T06:38:08.596Z,17.78
2022-09-15T06:39:11.624Z,17.82
2022-09-15T06:40:17.081Z,17.85
2022-09-15T06:41:20.535Z,17.88
2022-09-15T06:42:24.579Z,17.92
2022-09-15T06:43:27.605Z,17.95
2022-09-15T06:44:30.449Z,17.98
2022-09-15T06:45:33.300Z,18.00
2022-09-15T06:46:36.373Z,18.02
2022-09-15T06:47:39.689Z,18.06
2022-09-15T06:48:46.326Z,18.07
2022-09-15T06:49:48.179Z,18.08
2022-09-15T06:50:55.412Z,18.10
2022-09-15T06:52:00.276Z,18.11
2022-09-15T06:53:03.191Z,18.14
2022-09-15T06:54:06.572Z,18.16
2022-09-15T06:55:09.419Z,18.19
2022-09-15T06:56:15.107Z,18.19
2022-09-15T06:57:17.993Z,18.22
2022-09-15T06:58:20.923Z,18.23
2022-09-15T06:59:24.095Z,18.24
2022-09-15T07:00:28.719Z,18.24
2022-09-15T07:01:32.197Z,18.23
2022-09-15T07:02:35.163Z,18.22
2022-09-15T07:03:39.961Z,18.21
2022-09-15T07:04:43.002Z,18.19
2022-09-15T07:05:45.816Z,18.20
2022-09-15T07:06:49.825Z,18.20
2022-09-15T07:07:52.684Z,18.20
2022-09-15T07:08:56.116Z,18.20
2022-09-15T07:10:00.437Z,18.20
2022-09-15T07:11:03.569Z,18.21
2022-09-15T07:12:06.818Z,18.22
2022-09-15T07:13:09.805Z,18.24
2022-09-15T07:14:12.675Z,18.26
2022-09-15T07:15:15.628Z,18.28
2022-09-15T07:16:21.019Z,18.30
2022-09-15T07:17:25.834Z,18.33
2022-09-15T07:18:29.181Z,18.37
2022-09-15T07:19:32.096Z,18.39
2022-09-15T07:20:39.267Z,18.42
2022-09-15T07:21:42.644Z,18.44
2022-09-15T07:22:45.458Z,18.46
2022-09-15T07:23:48.576Z,18.46
2022-09-15T07:24:51.489Z,18.49
2022-09-15T07:26:06.172Z,18.49
2022-09-15T07:27:09.168Z,18.51
2022-09-15T07:28:12.694Z,18.53
2022-09-15T07:29:15.522Z,18.53
2022-09-15T07:30:18.752Z,18.53
2022-09-15T07:31:24.172Z,18.53
2022-09-15T07:32:27.178Z,18.53
2022-09-15T07:33:30.132Z,18.53
2022-09-15T07:34:33.036Z,18.53
2022-09-15T07:35:42.559Z,18.53
2022-09-15T07:36:45.825Z,18.53
2022-09-15T07:37:49.328Z,18.54
2022-09-15T07:38:52.209Z,18.55
2022-09-15T07:39:55.280Z,18.55
2022-09-15T07:41:06.467Z,18.55
2022-09-15T07:42:09.427Z,18.55
2022-09-15T07:43:13.004Z,18.55
2022-09-15T07:44:16.094Z,18.52
2022-09-15T07:45:19.364Z,18.50
2022-09-15T07:46:24.686Z,18.50
2022-09-15T07:47:28.876Z,18.49
2022-09-15T07:48:31.924Z,18.50
2022-09-15T07:49:34.933Z,18.52
2022-09-15T07:50:38.099Z,18.56
2022-09-15T07:51:40.964Z,18.56
2022-09-15T07:52:44.000Z,18.60
2022-09-15T07:53:48.301Z,18.62
2022-09-15T07:54:51.750Z,18.65
2022-09-15T07:55:55.560Z,18.65
2022-09-15T07:56:58.587Z,18.66
2022-09-15T07:58:03.181Z,18.65
2022-09-15T07:59:07.389Z,18.65
2022-09-15T08:00:11.559Z,18.65
2022-09-15T08:01:18.460Z,18.65
2022-09-15T08:02:21.747Z,18.65
2022-09-15T08:03:24.944Z,18.65
2022-09-15T08:04:28.129Z,18.66
2022-09-15T08:05:35.953Z,18.64
2022-09-15T08:06:36.961Z,18.65
2022-09-15T08:07:39.997Z,18.65
2022-09-15T08:08:45.780Z,18.67
2022-09-15T08:09:48.885Z,18.70
2022-09-15T08:10:52.373Z,18.73
2022-09-15T08:11:55.373Z,18.82
2022-09-15T08:12:59.230Z,18.82
2022-09-15T08:14:02.808Z,18.87
2022-09-15T08:15:06.069Z,18.92
2022-09-15T08:16:11.826Z,18.97
2022-09-15T08:17:14.821Z,19.04
2022-09-15T08:18:18.226Z,19.10
2022-09-15T08:19:21.277Z,19.19
2022-09-15T08:20:24.374Z,19.25
2022-09-15T08:21:27.827Z,19.32
2022-09-15T08:22:30.737Z,19.39
2022-09-15T08:23:33.798Z,19.44
2022-09-15T08:24:36.944Z,19.49
2022-09-15T08:25:39.927Z,19.54
2022-09-15T08:26:43.035Z,19.60
2022-09-15T08:27:46.104Z,19.66
2022-09-15T08:28:49.338Z,19.72
2022-09-15T08:29:52.472Z,19.78
2022-09-15T08:32:13.553Z,20.00
2022-09-15T08:33:16.821Z,19.92
2022-09-15T08:34:20.020Z,19.96
2022-09-15T08:35:23.090Z,20.00
2022-09-15T08:36:27.083Z,20.03
2022-09-15T08:37:30.600Z,20.06
2022-09-15T08:38:34.058Z,20.08
2022-09-15T08:39:36.957Z,20.11
2022-09-15T08:40:43.517Z,20.14
2022-09-15T08:41:49.389Z,20.17
2022-09-15T08:42:56.043Z,20.19
2022-09-15T08:44:08.575Z,20.21
2022-09-15T08:46:31.363Z,20.37
2022-09-15T08:47:37.983Z,20.27
2022-09-15T08:48:44.890Z,20.30
2022-09-15T08:50:07.502Z,20.32
2022-09-15T08:51:14.344Z,20.34
2022-09-15T08:52:23.514Z,20.36
2022-09-15T08:53:37.467Z,20.37
2022-09-15T08:54:40.883Z,20.38
2022-09-15T08:55:56.052Z,20.39
2022-09-15T08:57:00.639Z,20.39
2022-09-15T08:58:04.599Z,20.39
2022-09-15T08:59:11.154Z,20.39
2022-09-15T09:00:16.100Z,20.39
2022-09-15T09:01:28.667Z,20.40
2022-09-15T09:02:52.602Z,20.43
2022-09-15T09:04:17.948Z,20.44
2022-09-15T09:05:22.292Z,20.46
2022-09-15T09:06:28.892Z,20.45
2022-09-15T09:07:53.782Z,20.45
2022-09-15T09:09:15.445Z,20.46
2022-09-15T09:10:56.318Z,20.47
2022-09-15T09:12:19.323Z,20.50
2022-09-15T09:13:37.904Z,20.52
2022-09-15T09:14:47.364Z,20.52
2022-09-15T09:16:09.116Z,20.52
2022-09-15T09:17:15.819Z,20.53
2022-09-15T09:18:55.309Z,20.57
2022-09-15T09:20:01.852Z,20.59
2022-09-15T09:21:11.452Z,20.62
2022-09-15T09:22:17.905Z,20.64
2022-09-15T09:23:24.445Z,20.65
2022-09-15T09:24:45.707Z,20.67
2022-09-15T09:25:49.497Z,20.69
2022-09-15T09:26:55.228Z,20.71
2022-09-15T09:27:59.010Z,20.73
2022-09-15T09:29:12.001Z,20.76
2022-09-15T09:30:25.009Z,20.78
2022-09-15T09:31:28.996Z,20.81
2022-09-15T09:33:59.285Z,21.01
2022-09-15T09:35:14.955Z,20.93
2022-09-15T09:36:20.332Z,20.99
2022-09-15T09:37:24.259Z,21.06
2022-09-15T09:38:33.616Z,21.11
2022-09-15T09:39:36.583Z,21.16
2022-09-15T09:40:40.811Z,21.21
2022-09-15T09:41:44.481Z,21.25
2022-09-15T09:42:47.617Z,21.31
2022-09-15T09:43:53.617Z,21.34
2022-09-15T09:44:56.492Z,21.37
2022-09-15T09:45:59.412Z,21.40
2022-09-15T09:47:03.433Z,21.42
2022-09-15T09:48:16.022Z,21.44
2022-09-15T09:49:22.531Z,21.46
2022-09-15T09:50:43.677Z,21.48
2022-09-15T09:51:55.036Z,21.49
2022-09-15T09:52:58.395Z,21.52
2022-09-15T09:54:12.305Z,21.53
2022-09-15T09:55:23.102Z,21.53
2022-09-15T09:56:26.811Z,21.52
2022-09-15T09:57:32.085Z,21.50
2022-09-15T09:58:34.983Z,21.50
2022-09-15T09:59:43.520Z,21.48
2022-09-15T10:00:47.292Z,21.49
2022-09-15T10:02:28.218Z,21.49
2022-09-15T10:03:33.037Z,21.49
2022-09-15T10:04:36.864Z,21.51
2022-09-15T10:05:40.640Z,21.54
2022-09-15T10:06:43.728Z,21.54
2022-09-15T10:07:46.662Z,21.56
2022-09-15T10:08:56.821Z,21.59
2022-09-15T10:10:01.280Z,21.63
2022-09-15T10:11:09.764Z,21.66
2022-09-15T10:12:16.388Z,21.68
2022-09-15T10:13:20.983Z,21.69
2022-09-15T10:14:34.009Z,21.73
2022-09-15T10:15:37.868Z,21.73
2022-09-15T10:16:41.036Z,21.77
2022-09-15T10:17:45.674Z,21.81
2022-09-15T10:18:54.145Z,21.82
2022-09-15T10:19:57.438Z,21.82
2022-09-15T10:21:02.753Z,21.83
2022-09-15T10:22:05.862Z,21.82
2022-09-15T10:23:18.183Z,21.83
2022-09-15T10:24:39.637Z,21.84
2022-09-15T10:25:59.264Z,21.84
2022-09-15T10:26:48.880Z,21.85
2022-09-15T10:28:11.931Z,21.87
2022-09-15T10:29:17.422Z,21.87
2022-09-15T10:30:21.603Z,21.89
2022-09-15T10:31:30.884Z,21.89
2022-09-15T10:32:33.801Z,21.91
2022-09-15T10:33:47.148Z,21.93
2022-09-15T10:35:02.528Z,21.93
2022-09-15T10:36:09.413Z,21.94
2022-09-15T10:37:24.964Z,21.95
2022-09-15T10:39:01.516Z,21.94
2022-09-15T10:40:24.579Z,21.93
2022-09-15T10:41:32.073Z,21.93
2022-09-15T10:42:45.524Z,21.91
2022-09-15T10:43:54.657Z,21.91
2022-09-15T10:46:29.625Z,21.97
2022-09-15T10:47:45.233Z,21.84
2022-09-15T10:48:51.725Z,21.83
2022-09-15T10:50:05.687Z,21.81
2022-09-15T10:51:30.506Z,21.80
2022-09-15T10:52:49.083Z,21.78
2022-09-15T10:54:21.200Z,21.76
2022-09-15T10:55:51.252Z,21.73
2022-09-15T10:56:46.665Z,21.72
2022-09-15T10:58:17.077Z,21.71
2022-09-15T10:59:39.109Z,21.69
2022-09-15T11:01:04.872Z,21.66
2022-09-15T11:02:44.808Z,21.63
2022-09-15T11:04:10.546Z,21.61
2022-09-15T11:05:22.023Z,21.61
2022-09-15T11:06:25.903Z,21.59
2022-09-15T11:07:35.319Z,21.59
2022-09-15T11:08:47.950Z,21.61
2022-09-15T11:10:03.337Z,21.62
2022-09-15T11:11:12.628Z,21.64
2022-09-15T11:12:45.361Z,21.67
2022-09-15T11:13:58.165Z,21.68
2022-09-15T11:15:17.007Z,21.73
2022-09-15T11:16:33.442Z,21.74
2022-09-15T11:18:02.129Z,21.77
2022-09-15T11:19:12.487Z,21.79
2022-09-15T11:20:25.154Z,21.80
2022-09-15T11:21:49.752Z,21.83
2022-09-15T11:23:14.462Z,21.86
2022-09-15T11:24:23.913Z,21.88
2022-09-15T11:25:30.441Z,21.92
2022-09-15T11:26:40.098Z,21.93
2022-09-15T11:27:46.603Z,21.96
2022-09-15T11:28:53.151Z,21.98
2022-09-15T11:30:19.669Z,22.00
2022-09-15T11:32:51.807Z,22.16
2022-09-15T11:34:00.481Z,22.08
2022-09-15T11:35:28.735Z,22.08
2022-09-15T11:36:41.035Z,22.10
2022-09-15T11:37:47.551Z,22.10
2022-09-15T11:39:09.496Z,22.11
2022-09-15T11:40:22.479Z,22.12
2022-09-15T11:41:32.293Z,22.12
2022-09-15T11:42:47.390Z,22.11
2022-09-15T11:44:20.009Z,22.10
2022-09-15T11:45:26.838Z,22.10
2022-09-15T11:47:07.198Z,22.08
2022-09-15T11:48:22.473Z,22.07
2022-09-15T11:49:48.495Z,22.06
2022-09-15T11:50:55.050Z,22.03
2022-09-15T11:52:24.059Z,22.01
2022-09-15T11:53:39.701Z,21.99
2022-09-15T11:54:49.121Z,21.96
2022-09-15T11:56:01.487Z,21.91
2022-09-15T11:57:05.370Z,21.88
2022-09-15T11:58:46.780Z,21.86
2022-09-15T12:00:06.422Z,21.82
2022-09-15T12:01:16.308Z,21.76
2022-09-15T12:02:34.755Z,21.72
2022-09-15T12:03:47.685Z,21.67
2022-09-15T12:05:00.433Z,21.63
2022-09-15T12:06:09.912Z,21.58
2022-09-15T12:07:16.437Z,21.55
2022-09-15T12:08:28.840Z,21.51
2022-09-15T12:09:32.747Z,21.49
2022-09-15T12:10:45.627Z,21.46
2022-09-15T12:11:51.899Z,21.43
2022-09-15T12:12:55.999Z,21.40
2022-09-15T12:14:01.675Z,21.37
2022-09-15T12:15:05.411Z,21.36
2022-09-15T12:16:09.827Z,21.34
2022-09-15T12:17:25.212Z,21.32
2022-09-15T12:18:49.947Z,21.32
2022-09-15T12:20:16.652Z,21.30
2022-09-15T12:21:41.130Z,21.29
2022-09-15T12:22:47.871Z,21.26
2022-09-15T12:24:09.358Z,21.25
2022-09-15T12:25:18.546Z,21.22
2022-09-15T12:26:25.358Z,21.20
2022-09-15T12:27:28.545Z,21.19
2022-09-15T12:28:40.204Z,21.18
2022-09-15T12:29:54.310Z,21.17
2022-09-15T12:31:26.448Z,21.15
2022-09-15T12:32:32.712Z,21.13
2022-09-15T12:33:58.553Z,21.11
2022-09-15T12:35:17.192Z,21.10
2022-09-15T12:36:40.751Z,21.07
2022-09-15T12:37:49.898Z,21.04
2022-09-15T12:38:52.876Z,21.01
2022-09-15T12:39:56.142Z,20.97
2022-09-15T12:40:59.625Z,20.94
2022-09-15T12:42:12.076Z,20.91
2022-09-15T12:43:18.756Z,20.88
2022-09-15T12:44:34.007Z,20.85
2022-09-15T12:45:38.045Z,20.82
2022-09-15T12:46:43.028Z,20.79
2022-09-15T12:47:54.124Z,20.76
2022-09-15T12:49:01.132Z,20.74
2022-09-15T12:50:34.784Z,20.71
2022-09-15T12:51:38.142Z,20.70
2022-09-15T12:52:47.370Z,20.66
2022-09-15T12:53:57.300Z,20.63
2022-09-15T12:55:02.992Z,20.60
2022-09-15T12:56:12.269Z,20.57
2022-09-15T12:58:50.369Z,20.64
2022-09-15T13:00:11.541Z,20.52
2022-09-15T13:01:27.145Z,20.49
2022-09-15T13:02:45.458Z,20.44
2022-09-15T13:03:53.349Z,20.41
2022-09-15T13:04:57.496Z,20.36
2022-09-15T13:06:21.792Z,20.33
2022-09-15T13:07:35.287Z,20.31
2022-09-15T13:08:47.325Z,20.28
2022-09-15T13:10:15.772Z,20.25
2022-09-15T13:11:25.175Z,20.23
2022-09-15T13:12:32.136Z,20.21
2022-09-15T13:13:44.656Z,20.18
2022-09-15T13:14:49.516Z,20.16
2022-09-15T13:15:54.645Z,20.14
2022-09-15T13:17:02.819Z,20.10
2022-09-15T13:18:06.767Z,20.08
2022-09-15T13:19:22.319Z,20.05
2022-09-15T13:20:28.959Z,20.01
2022-09-15T13:21:35.106Z,19.98
2022-09-15T13:22:44.005Z,19.93
2022-09-15T13:23:49.751Z,19.89
2022-09-15T13:24:59.224Z,19.84
2022-09-15T13:26:03.661Z,19.79
2022-09-15T13:27:07.009Z,19.77
2022-09-15T13:28:12.224Z,19.74
2022-09-15T13:29:16.254Z,19.71
2022-09-15T13:30:24.554Z,19.67
2022-09-15T13:31:37.366Z,19.66
2022-09-15T13:32:43.807Z,19.64
2022-09-15T13:35:20.855Z,19.59
2022-09-15T13:38:32.030Z,19.53
2022-09-15T13:39:55.510Z,19.47
2022-09-15T13:41:23.328Z,19.43
2022-09-15T13:42:49.422Z,19.41
2022-09-15T13:44:27.647Z,19.38
2022-09-15T13:45:40.351Z,19.38
2022-09-15T13:47:07.581Z,19.35
2022-09-15T13:48:23.022Z,19.36
2022-09-15T13:49:38.529Z,19.34
2022-09-15T13:50:45.461Z,19.34
2022-09-15T13:52:01.023Z,19.32
2022-09-15T13:53:24.907Z,19.32
2022-09-15T13:54:27.951Z,19.32
2022-09-15T13:55:37.972Z,19.32
2022-09-15T13:56:41.013Z,19.33
2022-09-15T13:58:56.093Z,19.32
2022-09-15T13:59:57.556Z,19.32
2022-09-15T14:01:03.795Z,19.31
2022-09-15T14:02:08.790Z,19.31
2022-09-15T14:03:16.777Z,19.30
2022-09-15T14:04:31.091Z,19.30
2022-09-15T14:05:35.366Z,19.29
2022-09-15T14:06:41.180Z,19.29
2022-09-15T14:07:47.763Z,19.29
2022-09-15T14:08:58.166Z,19.28
2022-09-15T14:10:01.095Z,19.27
2022-09-15T14:11:09.870Z,19.26
2022-09-15T14:12:14.564Z,19.26
2022-09-15T14:13:20.322Z,19.25
2022-09-15T14:14:35.873Z,19.24
2022-09-15T14:15:38.794Z,19.24
2022-09-15T14:16:45.331Z,19.23
2022-09-15T14:17:48.209Z,19.22
2022-09-15T14:18:53.527Z,19.23
2022-09-15T14:19:58.712Z,19.23
2022-09-15T14:21:04.935Z,19.21
2022-09-15T14:22:26.606Z,19.22
2022-09-15T14:23:30.285Z,19.21
2022-09-15T14:24:33.224Z,19.21
2022-09-15T14:25:36.042Z,19.21
2022-09-15T14:26:38.962Z,19.19
2022-09-15T14:27:45.332Z,19.18
2022-09-15T14:28:54.940Z,19.17
2022-09-15T14:30:00.103Z,19.15
2022-09-15T14:31:03.153Z,19.14
2022-09-15T14:32:06.716Z,19.14
2022-09-15T14:33:13.238Z,19.13
2022-09-15T14:34:22.160Z,19.12
2022-09-15T14:35:30.492Z,19.12
2022-09-15T14:36:34.347Z,19.11
2022-09-15T14:37:37.221Z,19.11
2022-09-15T14:38:40.685Z,19.10
2022-09-15T14:39:53.571Z,19.07
2022-09-15T14:40:58.753Z,19.05
2022-09-15T14:42:21.464Z,19.05
2022-09-15T14:43:35.851Z,19.03
2022-09-15T14:45:57.574Z,19.00
2022-09-15T14:46:50.184Z,18.99
2022-09-15T14:48:00.964Z,18.98